Time;durP1;ratioP1;P1;durP2;ratioP2;P2;SDS_P1;SDS_P2;PMS_P1;PMS_P2;Temp;Humidity;BMP_temperature;BMP_pressure;BME280_temperature;BME280_humidity;BME280_pressure;Samples;Min_cycle;Max_cycle;Signal;HPM_P1;HPM_P2
2021/10/10 00:01:14;;;;;;;19.27;10.93;;;26.70;94.60;;;;;;5091404;28;20232;-73
2021/10/10 00:03:42;;;;;;;18.37;10.37;;;26.80;94.30;;;;;;5091358;28;21032;-73
2021/10/10 00:06:09;;;;;;;22.77;10.53;;;26.90;94.00;;;;;;5089209;28;20209;-73
2021/10/10 00:08:36;;;;;;;20.07;10.13;;;26.80;94.10;;;;;;5091126;28;20616;-73
2021/10/10 00:11:04;;;;;;;21.53;11.30;;;26.70;94.30;;;;;;5090833;28;20667;-73
2021/10/10 00:13:31;;;;;;;21.83;11.17;;;26.70;94.40;;;;;;5091775;28;20197;-73
2021/10/10 00:15:59;;;;;;;22.37;11.10;;;26.60;95.00;;;;;;5087595;28;20190;-72
2021/10/10 00:18:27;;;;;;;25.43;11.03;;;26.50;95.10;;;;;;5088495;28;20231;-73
2021/10/10 00:20:54;;;;;;;20.97;11.53;;;26.40;95.00;;;;;;5090542;28;20179;-73
2021/10/10 00:23:22;;;;;;;24.70;10.50;;;26.40;95.00;;;;;;5090525;28;20175;-73
2021/10/10 00:25:49;;;;;;;21.73;10.70;;;25.60;94.90;;;;;;5091801;28;20646;-70
2021/10/10 00:28:16;;;;;;;23.67;10.33;;;24.90;96.20;;;;;;5091830;28;20206;-72
2021/10/10 00:30:44;;;;;;;22.93;8.57;;;24.40;97.10;;;;;;5091178;28;20171;-71
2021/10/10 00:33:11;;;;;;;12.10;5.50;;;23.90;98.40;;;;;;5091411;28;20636;-74
2021/10/10 00:35:39;;;;;;;22.90;4.67;;;23.40;99.90;;;;;;5091824;28;20178;-71
2021/10/10 00:38:06;;;;;;;27.33;4.10;;;22.60;99.90;;;;;;5091865;28;20179;-73
2021/10/10 00:40:34;;;;;;;20.93;4.50;;;22.00;99.90;;;;;;5090598;28;20542;-70
2021/10/10 00:43:01;;;;;;;25.77;4.40;;;21.60;99.90;;;;;;5091625;28;20335;-72
2021/10/10 00:45:29;;;;;;;20.13;4.13;;;21.20;99.90;;;;;;5091016;28;20263;-71
2021/10/10 00:47:56;;;;;;;23.40;4.73;;;20.90;99.90;;;;;;5092471;28;20591;-70
2021/10/10 00:50:24;;;;;;;29.80;6.13;;;21.00;99.90;;;;;;5095314;28;20179;-72
2021/10/10 00:52:53;;;;;;;30.80;5.27;;;21.00;99.90;;;;;;5095805;28;20220;-73
2021/10/10 00:55:22;;;;;;;35.43;6.13;;;21.00;99.90;;;;;;5086147;28;20580;-71
2021/10/10 00:57:52;;;;;;;43.83;7.47;;;21.10;99.90;;;;;;5095186;28;20178;-71
2021/10/10 01:00:23;;;;;;;43.73;6.27;;;21.20;99.90;;;;;;5095004;28;20175;-70
2021/10/10 01:02:55;;;;;;;30.80;5.63;;;21.30;99.90;;;;;;5094847;28;20214;-70
2021/10/10 01:05:22;;;;;;;35.73;6.37;;;21.20;99.90;;;;;;5087958;28;20179;-71
2021/10/10 01:07:50;;;;;;;32.83;6.03;;;21.30;99.90;;;;;;5093856;28;20217;-73
2021/10/10 01:10:18;;;;;;;43.03;7.73;;;21.20;99.90;;;;;;5095434;28;20587;-75
2021/10/10 01:12:47;;;;;;;32.40;5.77;;;21.30;99.90;;;;;;5093348;28;20265;-70
2021/10/10 01:15:15;;;;;;;37.33;6.37;;;21.40;99.90;;;;;;5094924;28;20545;-72
2021/10/10 01:17:42;;;;;;;33.10;6.37;;;21.40;99.90;;;;;;5095281;28;20254;-75
2021/10/10 01:20:11;;;;;;;33.43;7.03;;;22.00;99.90;;;;;;5094942;28;20174;-72
2021/10/10 01:22:41;;;;;;;40.17;6.43;;;22.40;99.90;;;;;;5094934;28;20602;-72
2021/10/10 01:25:09;;;;;;;43.73;6.40;;;22.70;99.90;;;;;;5092491;28;20175;-70
2021/10/10 01:27:36;;;;;;;37.27;6.97;;;22.90;99.90;;;;;;5094430;28;20581;-72
2021/10/10 01:30:04;;;;;;;40.83;6.30;;;22.80;99.90;;;;;;5094289;28;20177;-73
2021/10/10 01:32:31;;;;;;;34.73;6.50;;;23.00;99.90;;;;;;5086649;28;20175;-71
2021/10/10 01:34:59;;;;;;;32.03;5.70;;;23.20;99.90;;;;;;5088176;28;20179;-71
2021/10/10 01:37:26;;;;;;;30.03;5.97;;;23.00;99.90;;;;;;5095021;28;20163;-73
2021/10/10 01:39:54;;;;;;;31.47;6.53;;;23.20;99.90;;;;;;5093889;28;20183;-73
2021/10/10 01:42:21;;;;;;;31.53;5.60;;;23.30;99.90;;;;;;5094203;28;20525;-72
2021/10/10 01:44:48;;;;;;;31.30;5.90;;;23.30;99.90;;;;;;5094550;28;20189;-72
2021/10/10 01:47:15;;;;;;;22.13;4.83;;;22.90;99.90;;;;;;5095047;28;20210;-72
2021/10/10 01:49:43;;;;;;;26.17;5.37;;;22.60;99.90;;;;;;5082323;28;20178;-72
2021/10/10 01:52:10;;;;;;;32.90;5.37;;;22.60;99.90;;;;;;5093918;28;20174;-72
2021/10/10 01:54:37;;;;;;;28.37;5.53;;;22.80;99.90;;;;;;5093254;28;20174;-74
2021/10/10 01:57:05;;;;;;;33.47;6.07;;;23.00;99.90;;;;;;5094223;28;20179;-70
2021/10/10 01:59:32;;;;;;;40.57;6.17;;;23.00;99.90;;;;;;5093451;28;20266;-72
2021/10/10 02:01:59;;;;;;;33.30;5.53;;;22.80;99.90;;;;;;5094390;28;20220;-69
2021/10/10 02:04:27;;;;;;;29.97;6.07;;;22.80;99.90;;;;;;5094815;28;20634;-70
2021/10/10 02:06:54;;;;;;;25.63;5.37;;;23.10;99.90;;;;;;5089276;28;20185;-70
2021/10/10 02:09:21;;;;;;;30.97;5.37;;;23.10;99.90;;;;;;5091495;28;20179;-73
2021/10/10 02:11:48;;;;;;;37.70;6.40;;;23.00;99.90;;;;;;5092405;28;20210;-72
2021/10/10 02:14:16;;;;;;;28.63;5.47;;;23.10;99.90;;;;;;5093640;28;20203;-74
2021/10/10 02:16:43;;;;;;;25.80;4.77;;;23.20;99.90;;;;;;5092224;28;20269;-73
2021/10/10 02:19:10;;;;;;;37.73;6.27;;;23.60;99.90;;;;;;5093155;28;20258;-76
2021/10/10 02:21:38;;;;;;;32.67;5.53;;;24.00;99.90;;;;;;5092943;28;20198;-74
2021/10/10 02:24:05;;;;;;;25.53;5.03;;;24.20;99.90;;;;;;5092428;28;20640;-72
2021/10/10 02:26:37;;;;;;;22.80;5.23;;;24.40;99.90;;;;;;5093555;28;20202;-73
2021/10/10 02:29:04;;;;;;;36.77;5.97;;;24.30;99.90;;;;;;5093500;28;20266;-72
2021/10/10 02:31:32;;;;;;;36.30;5.40;;;24.10;99.90;;;;;;5093961;28;20197;-70
2021/10/10 02:33:59;;;;;;;38.80;5.50;;;23.90;99.90;;;;;;5094003;28;20514;-72
2021/10/10 02:36:26;;;;;;;28.30;5.33;;;24.00;99.90;;;;;;5093705;28;20174;-74
2021/10/10 02:38:54;;;;;;;37.63;5.93;;;23.80;99.90;;;;;;5093761;28;20224;-71
2021/10/10 02:41:21;;;;;;;25.80;5.13;;;23.80;99.90;;;;;;5094330;28;20678;-72
2021/10/10 02:43:48;;;;;;;29.37;6.10;;;23.80;99.90;;;;;;5088599;28;20232;-71
2021/10/10 02:46:16;;;;;;;29.70;5.27;;;23.00;99.90;;;;;;5092040;28;20182;-72
2021/10/10 02:48:43;;;;;;;33.67;5.97;;;22.90;99.90;;;;;;5094622;28;20262;-69
2021/10/10 02:51:10;;;;;;;36.80;5.67;;;22.60;99.90;;;;;;5093369;28;20705;-73
2021/10/10 02:53:38;;;;;;;31.67;5.53;;;22.50;99.90;;;;;;5092383;28;20218;-71
2021/10/10 02:56:05;;;;;;;34.50;5.80;;;22.70;99.90;;;;;;5093170;28;20220;-72
2021/10/10 02:58:33;;;;;;;35.67;5.93;;;22.80;99.90;;;;;;5093367;28;20214;-70
2021/10/10 03:01:01;;;;;;;28.80;5.30;;;22.40;99.90;;;;;;5093301;28;20174;-71
2021/10/10 03:03:28;;;;;;;43.50;6.37;;;22.20;99.90;;;;;;5093827;28;20185;-72
2021/10/10 03:05:56;;;;;;;49.43;7.10;;;22.40;99.90;;;;;;5091131;28;20535;-73
2021/10/10 03:08:23;;;;;;;28.97;5.70;;;22.20;99.90;;;;;;5077169;28;20720;-70
2021/10/10 03:10:50;;;;;;;32.90;5.23;;;22.30;99.90;;;;;;5089203;28;20187;-72
2021/10/10 03:13:17;;;;;;;26.43;5.77;;;22.40;99.90;;;;;;5090886;28;20692;-71
2021/10/10 03:15:45;;;;;;;32.33;5.47;;;22.90;99.90;;;;;;5092973;28;20224;-71
2021/10/10 03:18:12;;;;;;;26.13;4.87;;;23.00;99.90;;;;;;5093125;28;20198;-71
2021/10/10 03:20:39;;;;;;;25.17;5.77;;;23.10;99.90;;;;;;5093164;28;20167;-71
2021/10/10 03:23:07;;;;;;;35.27;6.97;;;23.70;99.90;;;;;;5092849;28;20585;-73
2021/10/10 03:25:34;;;;;;;30.97;5.37;;;23.70;99.90;;;;;;5091881;28;20209;-71
2021/10/10 03:28:01;;;;;;;34.60;5.10;;;22.90;99.90;;;;;;5092618;28;20190;-71
2021/10/10 03:30:29;;;;;;;27.00;5.27;;;22.00;99.90;;;;;;5093043;28;20179;-71
2021/10/10 03:32:56;;;;;;;37.53;5.40;;;21.50;99.90;;;;;;5092964;28;20251;-72
2021/10/10 03:35:24;;;;;;;24.57;4.27;;;21.10;99.90;;;;;;5093030;28;20181;-70
2021/10/10 03:37:51;;;;;;;31.37;5.20;;;21.00;99.90;;;;;;5092161;28;20179;-72
2021/10/10 03:40:18;;;;;;;32.20;5.23;;;20.60;99.90;;;;;;5092359;28;20190;-70
2021/10/10 03:42:46;;;;;;;27.70;5.00;;;20.30;99.90;;;;;;5092526;28;20210;-72
2021/10/10 03:45:13;;;;;;;35.17;5.33;;;20.10;99.90;;;;;;5092794;28;20239;-71
2021/10/10 03:47:41;;;;;;;30.17;4.93;;;20.00;99.90;;;;;;5092681;28;20261;-70
2021/10/10 03:50:09;;;;;;;31.53;5.37;;;19.90;99.90;;;;;;5092648;28;20782;-73
2021/10/10 03:52:36;;;;;;;32.70;5.37;;;19.90;99.90;;;;;;5092519;28;20625;-72
2021/10/10 03:55:28;;;;;;;37.43;6.27;;;19.60;99.90;;;;;;5091137;28;20186;-75
2021/10/10 03:57:57;;;;;;;35.90;7.57;;;19.50;99.90;;;;;;5086308;28;20178;-72
2021/10/10 04:00:26;;;;;;;41.63;7.73;;;19.00;99.90;;;;;;5092488;28;20197;-70
2021/10/10 04:02:54;;;;;;;42.17;6.63;;;18.70;99.90;;;;;;5090911;28;20195;-76
2021/10/10 04:05:26;;;;;;;33.33;6.90;;;18.50;99.90;;;;;;5090994;28;20660;-79
2021/10/10 04:07:53;;;;;;;41.87;7.07;;;18.40;99.90;;;;;;5087834;28;20185;-76
2021/10/10 04:10:20;;;;;;;37.90;7.93;;;18.40;99.90;;;;;;5092412;28;20297;-76
2021/10/10 04:12:48;;;;;;;42.60;6.80;;;18.50;99.90;;;;;;5091708;28;20640;-74
2021/10/10 04:15:15;;;;;;;36.87;6.10;;;18.50;99.90;;;;;;5092275;28;20190;-74
2021/10/10 04:17:44;;;;;;;28.83;5.90;;;18.20;99.90;;;;;;5091600;28;20181;-74
2021/10/10 04:20:14;;;;;;;41.83;6.97;;;18.20;99.90;;;;;;5092506;28;20192;-73
2021/10/10 04:22:42;;;;;;;37.47;6.90;;;18.20;99.90;;;;;;5092476;28;20220;-72
2021/10/10 04:25:10;;;;;;;36.63;5.93;;;18.10;99.90;;;;;;5095433;28;20185;-75
2021/10/10 04:27:38;;;;;;;40.83;7.07;;;18.00;99.90;;;;;;5096240;28;20187;-70
2021/10/10 04:30:09;;;;;;;43.27;6.60;;;18.00;99.90;;;;;;5096063;28;20196;-73
2021/10/10 04:32:37;;;;;;;29.97;5.50;;;18.00;99.90;;;;;;5096675;28;20178;-73
2021/10/10 04:35:04;;;;;;;42.30;5.63;;;17.80;99.90;;;;;;5096376;28;20182;-69
2021/10/10 04:37:32;;;;;;;37.67;6.27;;;17.80;99.90;;;;;;5095827;28;20181;-72
2021/10/10 04:39:59;;;;;;;30.97;6.93;;;18.00;99.90;;;;;;5095786;28;20185;-73
2021/10/10 04:42:26;;;;;;;49.73;5.87;;;17.90;99.90;;;;;;5096242;28;20219;-73
2021/10/10 04:44:54;;;;;;;35.33;5.40;;;17.70;99.90;;;;;;5095813;28;20639;-72
2021/10/10 04:47:21;;;;;;;30.63;5.53;;;17.70;99.90;;;;;;5087823;28;20224;-77
2021/10/10 04:49:49;;;;;;;32.73;6.60;;;17.60;99.90;;;;;;5095970;28;20185;-72
2021/10/10 04:52:16;;;;;;;29.90;5.80;;;17.60;99.90;;;;;;5095606;28;20193;-73
2021/10/10 04:54:47;;;;;;;42.50;6.67;;;17.80;99.90;;;;;;5095088;28;20634;-73
2021/10/10 04:57:15;;;;;;;40.17;6.40;;;17.90;99.90;;;;;;5093094;28;20182;-74
2021/10/10 04:59:49;;;;;;;39.60;6.80;;;17.90;99.90;;;;;;5097901;28;20285;-70
2021/10/10 05:02:24;;;;;;;31.60;5.40;;;18.00;99.90;;;;;;5086747;28;20220;-71
2021/10/10 05:04:52;;;;;;;36.37;5.53;;;18.10;99.90;;;;;;5095236;28;20193;-71
2021/10/10 05:07:20;;;;;;;29.97;6.03;;;18.20;99.90;;;;;;5095649;28;20228;-72
2021/10/10 05:09:47;;;;;;;40.47;5.87;;;18.10;99.90;;;;;;5095206;28;20235;-74
2021/10/10 05:12:15;;;;;;;34.53;6.90;;;17.90;99.90;;;;;;5094855;28;20318;-74
2021/10/10 05:14:43;;;;;;;33.17;5.73;;;18.00;99.90;;;;;;5089251;28;20188;-76
2021/10/10 05:17:10;;;;;;;30.73;5.30;;;18.20;99.90;;;;;;5095619;28;20185;-73
2021/10/10 05:19:38;;;;;;;30.50;4.90;;;18.00;99.90;;;;;;5094708;28;20224;-73
2021/10/10 05:22:05;;;;;;;24.27;5.73;;;18.00;99.90;;;;;;5087357;28;20218;-75
2021/10/10 05:24:33;;;;;;;26.43;5.37;;;18.00;99.90;;;;;;5094293;28;20232;-75
2021/10/10 05:27:01;;;;;;;26.57;5.20;;;17.90;99.90;;;;;;5088908;28;20546;-75
2021/10/10 05:29:28;;;;;;;28.17;5.13;;;17.90;99.90;;;;;;5087015;28;20186;-75
2021/10/10 05:31:56;;;;;;;28.50;4.80;;;17.90;99.90;;;;;;5092466;28;20174;-73
2021/10/10 05:34:23;;;;;;;26.80;4.70;;;17.90;99.90;;;;;;5094777;28;20239;-73
2021/10/10 05:36:51;;;;;;;25.63;5.13;;;17.90;99.90;;;;;;5095089;28;20242;-74
2021/10/10 05:39:18;;;;;;;27.83;5.13;;;17.80;99.90;;;;;;5094664;28;20651;-72
2021/10/10 05:41:45;;;;;;;25.77;4.77;;;17.70;99.90;;;;;;5094407;28;20212;-77
2021/10/10 05:44:13;;;;;;;19.47;4.57;;;17.60;99.90;;;;;;5093684;28;20181;-70
2021/10/10 05:46:40;;;;;;;21.00;4.20;;;17.60;99.90;;;;;;5084563;28;20179;-73
2021/10/10 05:49:08;;;;;;;29.13;4.63;;;17.50;99.90;;;;;;5080010;28;20180;-71
2021/10/10 05:51:36;;;;;;;24.40;5.20;;;17.50;99.90;;;;;;5086480;28;20511;-72
2021/10/10 05:54:05;;;;;;;32.90;5.43;;;17.60;99.90;;;;;;5093877;28;20185;-69
2021/10/10 05:56:33;;;;;;;24.23;5.43;;;17.50;99.90;;;;;;5094060;28;20262;-69
2021/10/10 05:59:07;;;;;;;25.13;5.27;;;17.50;99.90;;;;;;5094722;28;20216;-77
2021/10/10 06:01:34;;;;;;;21.67;4.40;;;17.40;99.90;;;;;;5093964;28;20198;-76
2021/10/10 06:04:04;;;;;;;26.33;5.17;;;17.40;99.90;;;;;;5093155;28;20192;-71
2021/10/10 06:06:31;;;;;;;24.83;5.47;;;17.40;99.90;;;;;;5087599;28;20332;-72
2021/10/10 06:08:58;;;;;;;24.07;4.63;;;17.30;99.90;;;;;;5092056;28;20191;-67
2021/10/10 06:11:26;;;;;;;23.97;4.43;;;17.30;99.90;;;;;;5092175;28;20221;-74
2021/10/10 06:13:53;;;;;;;26.80;5.70;;;17.30;99.90;;;;;;5082073;28;20193;-71
2021/10/10 06:16:21;;;;;;;27.03;4.90;;;17.30;99.90;;;;;;5092442;28;20184;-70
2021/10/10 06:18:48;;;;;;;22.83;4.57;;;17.20;99.90;;;;;;5093887;28;20242;-72
2021/10/10 06:21:15;;;;;;;16.27;4.27;;;17.20;99.90;;;;;;5094386;28;20713;-68
2021/10/10 06:23:43;;;;;;;30.47;4.43;;;17.10;99.90;;;;;;5093176;28;20184;-75
2021/10/10 06:26:10;;;;;;;24.37;4.63;;;17.10;99.90;;;;;;5093787;28;20630;-73
2021/10/10 06:28:38;;;;;;;20.87;4.40;;;17.10;99.90;;;;;;5092842;28;20267;-76
2021/10/10 06:31:05;;;;;;;31.83;4.07;;;17.10;99.90;;;;;;5089469;28;20230;-77
2021/10/10 06:33:32;;;;;;;17.47;4.37;;;17.10;99.90;;;;;;5093713;28;20187;-75
2021/10/10 06:36:00;;;;;;;20.87;4.10;;;17.10;99.90;;;;;;5093730;28;20188;-75
2021/10/10 06:38:27;;;;;;;20.10;4.57;;;17.10;99.90;;;;;;5081426;28;20596;-76
2021/10/10 06:40:54;;;;;;;19.70;4.50;;;17.00;99.90;;;;;;5076883;28;20186;-76
2021/10/10 06:43:22;;;;;;;19.33;3.50;;;17.10;99.90;;;;;;5093788;28;20209;-73
2021/10/10 06:45:49;;;;;;;22.83;4.43;;;17.00;99.90;;;;;;5093217;28;20180;-76
2021/10/10 06:48:16;;;;;;;24.57;3.93;;;17.00;99.90;;;;;;5093100;28;20185;-78
2021/10/10 06:50:44;;;;;;;21.23;3.50;;;17.10;99.90;;;;;;5093825;28;20178;-74
2021/10/10 06:53:11;;;;;;;23.57;4.27;;;17.00;99.90;;;;;;5093555;28;20170;-74
2021/10/10 06:55:38;;;;;;;28.97;4.60;;;17.10;99.90;;;;;;5092260;28;20656;-75
2021/10/10 06:58:05;;;;;;;22.77;4.60;;;17.10;99.90;;;;;;5093610;28;20171;-71
2021/10/10 07:00:34;;;;;;;23.53;4.53;;;17.00;99.90;;;;;;5093665;28;20173;-76
2021/10/10 07:03:01;;;;;;;15.10;3.57;;;17.10;99.90;;;;;;5092986;28;20211;-73
2021/10/10 07:05:29;;;;;;;27.67;4.37;;;17.10;99.90;;;;;;5093460;28;20228;-75
2021/10/10 07:07:56;;;;;;;23.83;4.43;;;17.00;99.90;;;;;;5092118;28;20185;-77
2021/10/10 07:10:24;;;;;;;16.87;3.63;;;17.10;99.90;;;;;;5088343;28;20178;-71
2021/10/10 07:12:51;;;;;;;31.70;5.53;;;17.00;99.90;;;;;;5084183;28;20221;-73
2021/10/10 07:15:18;;;;;;;21.47;4.77;;;17.10;99.90;;;;;;5083812;28;20183;-76
2021/10/10 07:17:46;;;;;;;23.20;4.57;;;17.00;99.90;;;;;;5090368;28;20184;-72
2021/10/10 07:20:24;;;;;;;20.33;4.37;;;16.90;99.90;;;;;;5093198;28;20259;-74
2021/10/10 07:23:09;;;;;;;27.50;4.37;;;16.90;99.90;;;;;;5092867;28;20247;-72
2021/10/10 07:25:37;;;;;;;23.93;4.83;;;16.90;99.90;;;;;;5072919;28;20182;-78
2021/10/10 07:28:04;;;;;;;17.67;4.33;;;16.90;99.90;;;;;;5092689;28;20187;-73
2021/10/10 07:30:32;;;;;;;25.80;3.83;;;16.90;99.90;;;;;;5078973;28;20185;-73
2021/10/10 07:32:59;;;;;;;28.57;5.13;;;16.90;99.90;;;;;;5093168;28;20266;-73
2021/10/10 07:35:27;;;;;;;21.60;4.47;;;16.90;99.90;;;;;;5092805;28;20178;-73
2021/10/10 07:37:54;;;;;;;23.23;4.33;;;16.90;99.90;;;;;;5092740;28;20176;-77
2021/10/10 07:40:21;;;;;;;25.23;4.60;;;16.90;99.90;;;;;;5092161;28;20186;-77
2021/10/10 07:42:49;;;;;;;26.77;5.03;;;16.80;99.90;;;;;;5078815;28;20226;-76
2021/10/10 07:45:19;;;;;;;31.60;4.50;;;16.80;99.90;;;;;;5092099;28;20207;-74
2021/10/10 07:47:48;;;;;;;22.50;4.93;;;16.80;99.90;;;;;;5092170;28;20194;-79
2021/10/10 07:50:17;;;;;;;23.43;4.07;;;16.80;99.90;;;;;;5092734;28;20263;-75
2021/10/10 07:52:45;;;;;;;24.47;4.10;;;16.80;99.90;;;;;;5092308;28;20173;-77
2021/10/10 07:55:12;;;;;;;30.87;4.97;;;16.80;99.90;;;;;;5084972;28;20645;-77
2021/10/10 07:57:40;;;;;;;22.70;4.47;;;16.80;99.90;;;;;;5091435;28;20664;-77
2021/10/10 08:00:10;;;;;;;25.53;4.40;;;16.80;99.90;;;;;;5092777;28;20207;-72
2021/10/10 08:02:57;;;;;;;18.67;4.87;;;16.80;99.90;;;;;;5091896;28;20564;-77
2021/10/10 08:05:27;;;;;;;22.30;4.03;;;16.70;99.90;;;;;;5092581;28;20178;-76
2021/10/10 08:07:55;;;;;;;26.07;4.10;;;16.80;99.90;;;;;;5088383;28;20179;-76
2021/10/10 08:10:24;;;;;;;22.40;4.17;;;16.80;99.90;;;;;;5080494;28;20183;-76
2021/10/10 08:12:51;;;;;;;19.27;3.97;;;16.70;99.90;;;;;;5086909;28;20231;-74
2021/10/10 08:15:18;;;;;;;23.97;4.10;;;16.80;99.90;;;;;;5088197;28;20225;-75
2021/10/10 08:17:46;;;;;;;20.47;4.10;;;16.80;99.90;;;;;;5085623;28;20182;-76
2021/10/10 08:20:13;;;;;;;19.80;4.73;;;16.90;99.90;;;;;;5087942;28;20180;-76
2021/10/10 08:22:41;;;;;;;21.30;4.03;;;16.80;99.90;;;;;;5092206;28;20720;-76
2021/10/10 08:25:13;;;;;;;25.67;4.30;;;16.80;99.90;;;;;;5090712;28;20166;-73
2021/10/10 08:27:46;;;;;;;20.70;4.63;;;16.80;99.90;;;;;;5091052;28;20211;-75
2021/10/10 08:30:19;;;;;;;16.80;3.60;;;16.80;99.90;;;;;;5084068;28;20173;-72
2021/10/10 08:32:47;;;;;;;20.17;4.20;;;16.80;99.90;;;;;;5079507;28;20174;-75
2021/10/10 08:35:15;;;;;;;20.17;3.90;;;16.70;99.90;;;;;;5084622;28;20173;-77
2021/10/10 08:37:43;;;;;;;23.20;3.57;;;16.70;99.90;;;;;;5081251;28;20276;-73
2021/10/10 08:40:12;;;;;;;13.23;2.83;;;16.70;99.90;;;;;;5090567;28;20178;-75
2021/10/10 08:42:44;;;;;;;18.90;4.53;;;16.60;99.90;;;;;;5091863;28;20290;-74
2021/10/10 08:45:18;;;;;;;15.67;3.17;;;16.60;99.90;;;;;;5092443;28;20179;-76
2021/10/10 08:47:46;;;;;;;13.83;3.13;;;16.60;99.90;;;;;;5086071;28;20192;-72
2021/10/10 08:50:34;;;;;;;10.30;3.00;;;16.60;99.90;;;;;;5089589;28;20646;-73
2021/10/10 08:53:01;;;;;;;17.77;3.20;;;16.60;99.90;;;;;;5084966;28;20522;-74
2021/10/10 08:55:31;;;;;;;15.83;3.47;;;16.60;99.90;;;;;;5080943;28;20185;-73
2021/10/10 08:57:59;;;;;;;14.83;3.60;;;16.50;99.90;;;;;;5090730;28;20202;-73
2021/10/10 09:00:35;;;;;;;17.57;2.47;;;16.60;99.90;;;;;;5091136;28;20179;-71
2021/10/10 09:03:09;;;;;;;10.67;3.53;;;16.50;99.90;;;;;;5090802;28;20213;-71
2021/10/10 09:05:37;;;;;;;15.60;4.57;;;16.50;99.90;;;;;;5091953;28;20267;-71
2021/10/10 09:08:04;;;;;;;19.40;3.20;;;16.50;99.90;;;;;;5091759;28;20172;-72
2021/10/10 09:10:32;;;;;;;16.20;3.17;;;16.50;99.90;;;;;;5097269;28;20167;-71
2021/10/10 09:13:07;;;;;;;15.60;3.40;;;16.50;99.90;;;;;;5093350;28;20239;-75
2021/10/10 09:15:36;;;;;;;9.00;2.70;;;16.40;99.90;;;;;;5095146;28;20690;-77
2021/10/10 09:18:06;;;;;;;15.60;2.83;;;16.40;99.90;;;;;;5092740;28;20683;-74
2021/10/10 09:20:44;;;;;;;10.70;2.47;;;16.40;99.90;;;;;;5095352;28;20542;-73
2021/10/10 09:23:33;;;;;;;10.13;2.30;;;16.40;99.90;;;;;;5095238;28;20206;-74
2021/10/10 09:26:03;;;;;;;13.80;2.60;;;16.40;99.90;;;;;;5094663;28;20548;-73
2021/10/10 09:28:33;;;;;;;7.77;2.17;;;16.30;99.90;;;;;;5081294;28;20266;-75
2021/10/10 09:31:05;;;;;;;11.50;2.10;;;16.30;99.90;;;;;;5075515;28;20186;-71
2021/10/10 09:33:46;;;;;;;11.67;2.30;;;16.30;99.90;;;;;;5094376;28;20522;-74
2021/10/10 09:36:26;;;;;;;12.10;2.17;;;16.30;99.90;;;;;;5082777;28;20180;-72
2021/10/10 09:41:47;;;;;;;10.50;2.40;;;16.30;99.90;;;;;;5084230;28;20588;-71
2021/10/10 09:44:22;;;;;;;7.63;1.57;;;16.30;99.90;;;;;;5094830;28;20577;-73
2021/10/10 09:46:51;;;;;;;8.60;1.93;;;16.30;99.90;;;;;;5095019;28;20183;-75
2021/10/10 09:49:26;;;;;;;13.87;2.27;;;16.40;99.90;;;;;;5094396;28;20187;-71
2021/10/10 09:52:10;;;;;;;8.97;2.13;;;16.30;99.90;;;;;;5094771;28;20674;-71
2021/10/10 09:54:58;;;;;;;13.83;2.83;;;16.30;99.90;;;;;;5091826;28;20267;-72
2021/10/10 09:57:33;;;;;;;7.80;2.33;;;16.30;99.90;;;;;;5088708;28;20664;-73
2021/10/10 10:00:17;;;;;;;11.47;2.23;;;16.30;99.90;;;;;;5094727;28;20184;-74
2021/10/10 10:02:46;;;;;;;13.90;2.33;;;16.30;99.90;;;;;;5094436;28;20217;-74
2021/10/10 10:05:32;;;;;;;16.37;2.80;;;16.20;99.90;;;;;;5094119;28;20248;-74
2021/10/10 10:08:00;;;;;;;12.80;2.00;;;16.30;99.90;;;;;;5078055;28;20182;-76
2021/10/10 10:10:30;;;;;;;12.67;2.43;;;16.30;99.90;;;;;;5094007;28;20652;-73
2021/10/10 10:13:00;;;;;;;14.20;2.70;;;16.20;99.90;;;;;;5094017;28;20234;-73
2021/10/10 10:15:31;;;;;;;18.93;3.30;;;16.30;99.90;;;;;;5093852;28;20182;-73
2021/10/10 10:17:59;;;;;;;12.30;2.40;;;16.30;99.90;;;;;;5093990;28;20535;-72
2021/10/10 10:20:29;;;;;;;17.13;2.60;;;16.30;99.90;;;;;;5093322;28;20505;-72
2021/10/10 10:22:58;;;;;;;13.30;2.33;;;16.30;99.90;;;;;;5094072;28;20681;-74
2021/10/10 10:25:27;;;;;;;13.97;2.90;;;16.30;99.90;;;;;;5083801;28;20663;-74
2021/10/10 10:27:55;;;;;;;13.10;2.60;;;16.40;99.90;;;;;;5088227;28;20206;-74
2021/10/10 10:30:24;;;;;;;10.23;2.23;;;16.40;99.90;;;;;;5087892;28;20547;-75
2021/10/10 10:32:54;;;;;;;15.50;2.10;;;16.30;99.90;;;;;;5093974;28;20176;-74
2021/10/10 10:35:21;;;;;;;12.63;2.13;;;16.30;99.90;;;;;;5093437;28;20182;-73
2021/10/10 10:37:52;;;;;;;11.80;2.80;;;16.40;99.90;;;;;;5093842;28;20184;-73
2021/10/10 10:40:26;;;;;;;15.67;3.20;;;16.40;99.90;;;;;;5093486;28;20178;-72
2021/10/10 10:42:55;;;;;;;21.40;2.87;;;16.40;99.90;;;;;;5093348;28;20219;-73
2021/10/10 10:45:37;;;;;;;12.67;2.07;;;16.30;99.90;;;;;;5091070;28;20264;-73
2021/10/10 10:48:31;;;;;;;14.13;2.50;;;16.30;99.90;;;;;;5092886;28;20202;-74
2021/10/10 10:51:23;;;;;;;13.27;2.30;;;16.30;99.90;;;;;;5093272;28;20174;-74
2021/10/10 10:53:51;;;;;;;12.97;3.00;;;16.20;99.90;;;;;;5092359;28;20239;-73
2021/10/10 10:56:33;;;;;;;11.27;2.40;;;16.30;99.90;;;;;;5088877;28;20190;-73
2021/10/10 10:59:01;;;;;;;13.73;2.60;;;16.20;99.90;;;;;;5093429;28;20191;-70
2021/10/10 11:02:01;;;;;;;14.87;2.33;;;16.30;99.90;;;;;;5092543;28;20181;-67
2021/10/10 11:04:29;;;;;;;14.07;2.77;;;16.20;99.90;;;;;;5092926;28;20177;-66
2021/10/10 11:07:08;;;;;;;12.73;2.40;;;16.30;99.90;;;;;;5093552;28;20633;-66
2021/10/10 11:09:45;;;;;;;10.27;2.83;;;16.30;99.90;;;;;;5091836;28;20174;-66
2021/10/10 11:12:13;;;;;;;13.33;2.50;;;16.30;99.90;;;;;;5092748;28;20637;-66
2021/10/10 11:14:43;;;;;;;10.90;1.90;;;16.30;99.90;;;;;;5092994;28;20183;-66
2021/10/10 11:17:15;;;;;;;7.53;2.07;;;16.20;99.90;;;;;;5082739;28;20561;-69
2021/10/10 11:19:43;;;;;;;17.00;2.43;;;16.20;99.90;;;;;;5091198;28;20188;-65
2021/10/10 11:22:10;;;;;;;12.37;2.60;;;16.20;99.90;;;;;;5093293;28;20198;-68
2021/10/10 11:24:38;;;;;;;8.50;2.10;;;16.30;99.90;;;;;;5091796;28;20721;-65
2021/10/10 11:27:12;;;;;;;5.90;1.90;;;16.20;99.90;;;;;;5082724;28;20185;-69
2021/10/10 11:29:39;;;;;;;7.83;1.87;;;16.10;99.90;;;;;;5080175;28;20262;-65
2021/10/10 11:32:06;;;;;;;10.13;2.33;;;16.10;99.90;;;;;;5088856;28;20182;-65
2021/10/10 11:34:33;;;;;;;12.20;1.93;;;16.10;99.90;;;;;;5092981;28;20183;-63
2021/10/10 11:37:01;;;;;;;10.87;2.33;;;16.00;99.90;;;;;;5093060;28;20190;-65
2021/10/10 11:39:35;;;;;;;8.40;2.13;;;16.00;99.90;;;;;;5092699;28;20272;-65
2021/10/10 11:42:05;;;;;;;12.57;1.93;;;16.10;99.90;;;;;;5092520;28;20778;-65
2021/10/10 11:44:58;;;;;;;6.83;2.00;;;16.10;99.90;;;;;;5092972;28;20262;-66
2021/10/10 11:47:30;;;;;;;5.93;2.10;;;16.00;99.90;;;;;;5090061;28;20195;-71
2021/10/10 11:50:00;;;;;;;11.27;2.17;;;16.00;99.90;;;;;;5092562;28;20241;-65
2021/10/10 11:52:33;;;;;;;9.37;2.00;;;16.10;99.90;;;;;;5092518;28;20656;-67
2021/10/10 11:57:36;;;;;;;7.23;1.80;;;16.00;99.90;;;;;;5092556;28;20512;-64
2021/10/10 12:00:14;;;;;;;9.93;2.00;;;16.00;99.90;;;;;;5092599;28;20179;-64
2021/10/10 12:02:47;;;;;;;7.13;2.00;;;16.00;99.90;;;;;;5092146;28;20220;-66
2021/10/10 12:05:22;;;;;;;5.87;1.93;;;15.90;99.90;;;;;;5089923;28;20174;-64
2021/10/10 12:07:55;;;;;;;7.80;1.90;;;15.90;99.90;;;;;;5092156;28;20184;-66
2021/10/10 12:10:23;;;;;;;7.07;1.87;;;15.90;99.90;;;;;;5091894;28;20315;-65
2021/10/10 12:12:55;;;;;;;7.90;2.37;;;15.90;99.90;;;;;;5092211;28;20222;-66
2021/10/10 12:15:23;;;;;;;5.57;2.03;;;15.90;99.90;;;;;;5092557;28;20206;-64
2021/10/10 12:17:57;;;;;;;6.93;1.50;;;15.90;99.90;;;;;;5092161;28;20233;-66
2021/10/10 12:20:30;;;;;;;7.50;2.03;;;15.90;99.90;;;;;;5091874;28;20745;-65
2021/10/10 12:23:00;;;;;;;6.87;1.90;;;15.90;99.90;;;;;;5092203;28;20203;-65
2021/10/10 12:25:35;;;;;;;9.33;1.90;;;16.00;99.90;;;;;;5091406;28;20177;-64
2021/10/10 12:28:19;;;;;;;7.37;2.43;;;15.90;99.90;;;;;;5092238;28;20175;-65
2021/10/10 12:30:57;;;;;;;8.17;2.50;;;15.90;99.90;;;;;;5077953;28;20175;-64
2021/10/10 12:33:34;;;;;;;8.57;2.53;;;15.90;99.90;;;;;;5090235;28;20179;-69
2021/10/10 12:36:01;;;;;;;7.33;2.03;;;15.80;99.90;;;;;;5087600;28;20714;-67
2021/10/10 12:38:48;;;;;;;7.13;2.63;;;15.80;99.90;;;;;;5092157;28;20202;-66
2021/10/10 12:41:22;;;;;;;13.83;3.03;;;15.70;99.90;;;;;;5086383;28;20531;-68
2021/10/10 12:43:51;;;;;;;9.37;2.70;;;15.60;99.90;;;;;;5090207;28;20296;-66
2021/10/10 12:46:23;;;;;;;13.87;3.53;;;15.60;99.90;;;;;;5084753;28;20709;-65
2021/10/10 12:49:07;;;;;;;10.17;2.60;;;15.60;99.90;;;;;;5095878;28;20182;-65
2021/10/10 12:51:35;;;;;;;10.37;2.90;;;15.70;99.90;;;;;;5084141;28;20538;-65
2021/10/10 12:54:12;;;;;;;10.63;3.30;;;15.70;99.90;;;;;;5094381;28;20182;-64
2021/10/10 12:56:40;;;;;;;11.13;3.73;;;15.70;99.90;;;;;;5080546;28;20235;-69